createdAt,value
2018-07-25T00:01:49.488Z,78.60
2018-07-25T00:04:18.580Z,78.60
2018-07-25T00:06:46.275Z,78.60
2018-07-25T00:09:14.617Z,78.60
2018-07-25T00:11:42.304Z,78.70
2018-07-25T00:14:10.000Z,78.70
2018-07-25T00:16:37.680Z,78.70
2018-07-25T00:19:05.376Z,78.70
2018-07-25T00:21:33.304Z,78.70
2018-07-25T00:24:01.003Z,78.70
2018-07-25T00:26:29.047Z,78.70
2018-07-25T00:28:56.748Z,78.70
2018-07-25T00:31:24.440Z,78.70
2018-07-25T00:33:52.118Z,78.70
2018-07-25T00:36:20.256Z,78.70
2018-07-25T00:38:48.187Z,78.80
2018-07-25T00:41:17.834Z,78.70
2018-07-25T00:43:46.597Z,79.40
2018-07-25T00:46:14.329Z,78.70
2018-07-25T00:48:42.016Z,78.80
2018-07-25T00:51:09.730Z,78.80
2018-07-25T00:53:37.447Z,78.80
2018-07-25T00:56:05.168Z,78.70
2018-07-25T00:58:32.917Z,78.70
2018-07-25T01:01:00.623Z,78.70
2018-07-25T01:03:28.320Z,78.70
2018-07-25T01:05:56.032Z,78.70
2018-07-25T01:08:23.724Z,78.70
2018-07-25T01:10:51.520Z,78.70
2018-07-25T01:13:19.672Z,78.70
2018-07-25T01:15:48.180Z,78.80
2018-07-25T01:18:16.631Z,78.70
2018-07-25T01:20:44.368Z,78.80
2018-07-25T01:23:12.068Z,78.80
2018-07-25T01:25:39.788Z,78.80
2018-07-25T01:28:07.472Z,78.80
2018-07-25T01:30:35.205Z,78.80
2018-07-25T01:33:02.896Z,78.90
2018-07-25T01:35:30.600Z,78.90
2018-07-25T01:37:58.297Z,78.80
2018-07-25T01:42:53.512Z,78.80
2018-07-25T01:45:21.216Z,78.80
2018-07-25T01:47:49.401Z,78.80
2018-07-25T01:50:17.175Z,78.80
2018-07-25T01:52:44.885Z,78.80
2018-07-25T01:55:12.592Z,78.90
2018-07-25T01:57:40.288Z,78.80
2018-07-25T02:00:07.985Z,78.90
2018-07-25T02:02:35.676Z,78.90
2018-07-25T02:05:03.413Z,79.00
2018-07-25T02:07:31.124Z,78.90
2018-07-25T02:09:58.843Z,78.90
2018-07-25T02:12:26.535Z,78.80
2018-07-25T02:14:54.239Z,78.80
2018-07-25T02:17:21.913Z,78.90
2018-07-25T02:19:49.615Z,78.90
2018-07-25T02:22:18.586Z,78.90
2018-07-25T02:24:46.333Z,78.90
2018-07-25T02:27:14.033Z,78.90
2018-07-25T02:29:41.752Z,79.00
2018-07-25T02:32:09.607Z,78.90
2018-07-25T02:34:37.320Z,78.90
2018-07-25T02:37:05.013Z,79.00
2018-07-25T02:39:32.700Z,79.00
2018-07-25T02:42:00.377Z,79.00
2018-07-25T02:44:28.076Z,79.00
2018-07-25T02:46:55.782Z,79.00
2018-07-25T02:49:23.469Z,78.90
2018-07-25T02:51:51.153Z,79.00
2018-07-25T02:54:19.881Z,78.90
2018-07-25T02:56:48.076Z,78.90
2018-07-25T02:59:18.116Z,79.00
2018-07-25T03:01:45.844Z,78.90
2018-07-25T03:04:13.535Z,79.00
2018-07-25T03:06:41.230Z,78.90
2018-07-25T03:09:09.933Z,79.00
2018-07-25T03:11:37.764Z,79.00
2018-07-25T03:14:05.451Z,79.00
2018-07-25T03:16:33.210Z,79.00
2018-07-25T03:19:00.853Z,79.00
2018-07-25T03:21:28.560Z,79.00
2018-07-25T03:23:56.245Z,79.00
2018-07-25T03:26:24.441Z,79.00
2018-07-25T03:28:52.149Z,79.10
2018-07-25T03:31:19.852Z,79.00
2018-07-25T03:33:48.269Z,79.00
2018-07-25T03:36:16.687Z,79.00
2018-07-25T03:38:44.433Z,79.00
2018-07-25T03:41:12.116Z,79.10
2018-07-25T03:43:39.840Z,79.00
2018-07-25T03:46:07.539Z,79.00
2018-07-25T03:48:35.215Z,79.00
2018-07-25T03:51:02.921Z,79.00
2018-07-25T03:53:30.607Z,79.00
2018-07-25T03:55:58.312Z,79.00
2018-07-25T03:58:26.014Z,78.90
2018-07-25T04:00:53.723Z,78.60
2018-07-25T04:03:21.404Z,78.80
2018-07-25T04:05:49.921Z,78.80
2018-07-25T04:08:18.977Z,78.60
2018-07-25T04:10:48.852Z,78.50
2018-07-25T04:13:18.264Z,78.20
2018-07-25T04:15:47.962Z,78.10
2018-07-25T04:18:18.064Z,78.00
2018-07-25T04:20:46.696Z,77.90
2018-07-25T04:23:14.464Z,77.90
2018-07-25T04:25:42.173Z,78.00
2018-07-25T04:28:09.913Z,78.00
2018-07-25T04:30:37.607Z,78.00
2018-07-25T04:33:05.315Z,78.00
2018-07-25T04:35:33.016Z,78.10
2018-07-25T04:38:00.692Z,78.10
2018-07-25T04:40:28.409Z,78.10
2018-07-25T04:42:56.105Z,78.20
2018-07-25T04:45:23.801Z,78.20
2018-07-25T04:47:51.516Z,78.20
2018-07-25T04:50:19.226Z,78.20
2018-07-25T04:52:47.780Z,78.20
2018-07-25T04:55:16.520Z,78.20
2018-07-25T04:57:45.202Z,78.20
2018-07-25T05:00:12.948Z,78.20
2018-07-25T05:02:40.660Z,78.20
2018-07-25T05:05:08.361Z,78.40
2018-07-25T05:07:36.071Z,78.30
2018-07-25T05:10:03.784Z,78.30
2018-07-25T05:12:31.496Z,78.30
2018-07-25T05:14:59.197Z,78.40
2018-07-25T05:17:26.905Z,78.30
2018-07-25T05:19:54.604Z,78.30
2018-07-25T05:22:22.339Z,78.40
2018-07-25T05:24:50.036Z,78.30
2018-07-25T05:27:19.072Z,78.40
2018-07-25T05:29:48.043Z,78.50
2018-07-25T05:32:16.434Z,78.40
2018-07-25T05:34:44.545Z,78.40
2018-07-25T05:37:12.235Z,78.40
2018-07-25T05:39:39.932Z,78.50
2018-07-25T05:42:07.648Z,78.40
2018-07-25T05:44:35.348Z,78.50
2018-07-25T05:47:03.058Z,78.30
2018-07-25T05:49:30.823Z,78.30
2018-07-25T05:51:58.553Z,78.50
2018-07-25T05:54:26.244Z,78.60
2018-07-25T05:56:54.089Z,78.60
2018-07-25T05:59:21.820Z,78.50
2018-07-25T06:01:49.492Z,78.40
2018-07-25T06:04:18.582Z,78.50
2018-07-25T06:06:46.280Z,78.60
2018-07-25T06:09:14.627Z,78.60
2018-07-25T06:11:42.314Z,78.70
2018-07-25T06:14:09.994Z,78.70
2018-07-25T06:16:37.777Z,78.70
2018-07-25T06:19:06.478Z,78.70
2018-07-25T06:21:34.186Z,78.60
2018-07-25T06:24:01.888Z,78.50
2018-07-25T06:26:29.572Z,78.40
2018-07-25T06:28:57.275Z,78.60
2018-07-25T06:31:25.007Z,78.50
2018-07-25T06:33:52.663Z,78.40
2018-07-25T06:36:20.776Z,78.40
2018-07-25T06:38:50.201Z,78.40
2018-07-25T06:41:18.663Z,78.60
2018-07-25T06:43:48.135Z,78.60
2018-07-25T06:46:16.474Z,78.60
2018-07-25T06:48:44.599Z,78.30
2018-07-25T06:51:12.285Z,78.50
2018-07-25T06:53:40.332Z,78.50
2018-07-25T06:56:08.137Z,78.50
2018-07-25T06:58:35.862Z,78.50
2018-07-25T07:01:03.605Z,78.40
2018-07-25T07:03:31.317Z,78.50
2018-07-25T07:05:59.001Z,78.60
2018-07-25T07:08:26.696Z,78.40
2018-07-25T07:10:54.376Z,78.60
2018-07-25T07:13:22.079Z,78.60
2018-07-25T07:15:49.756Z,78.50
2018-07-25T07:18:18.664Z,78.40
2018-07-25T07:20:46.347Z,78.60
2018-07-25T07:23:14.823Z,78.40
2018-07-25T07:25:42.516Z,78.60
2018-07-25T07:28:10.221Z,78.60
2018-07-25T07:30:37.900Z,78.40
2018-07-25T07:33:05.708Z,78.50
2018-07-25T07:35:33.412Z,78.60
2018-07-25T07:38:01.129Z,78.60
2018-07-25T07:40:28.812Z,78.60
2018-07-25T07:42:56.499Z,78.40
2018-07-25T07:45:24.174Z,78.50
2018-07-25T07:47:51.893Z,78.40
2018-07-25T07:50:20.460Z,78.40
2018-07-25T07:52:48.805Z,78.60
2018-07-25T07:55:16.481Z,78.60
2018-07-25T07:57:44.602Z,78.40
2018-07-25T08:00:12.337Z,78.50
2018-07-25T08:02:40.014Z,78.40
2018-07-25T08:05:07.704Z,78.50
2018-07-25T08:07:35.406Z,78.50
2018-07-25T08:10:20.971Z,78.80
2018-07-25T08:12:49.684Z,78.50
2018-07-25T08:15:18.592Z,78.60
2018-07-25T08:17:48.908Z,78.50
2018-07-25T08:20:16.561Z,78.60
2018-07-25T08:22:44.272Z,78.70
2018-07-25T08:25:11.978Z,78.60
2018-07-25T08:27:39.660Z,78.40
2018-07-25T08:30:07.360Z,78.70
2018-07-25T08:32:35.036Z,78.80
2018-07-25T08:35:02.745Z,78.60
2018-07-25T08:37:30.460Z,79.00
2018-07-25T08:39:58.577Z,79.00
2018-07-25T08:42:31.177Z,78.80
2018-07-25T08:44:58.872Z,78.70
2018-07-25T08:47:26.551Z,78.40
2018-07-25T08:49:54.225Z,78.20
2018-07-25T08:52:22.086Z,78.00
2018-07-25T08:54:49.761Z,77.90
2018-07-25T08:57:18.575Z,77.90
2018-07-25T08:59:48.016Z,77.80
2018-07-25T09:02:16.630Z,77.90
2018-07-25T09:04:45.413Z,77.90
2018-07-25T09:07:13.096Z,77.90
2018-07-25T09:09:40.859Z,78.00
2018-07-25T09:12:08.520Z,78.00
2018-07-25T09:14:36.224Z,78.00
2018-07-25T09:17:03.912Z,78.00
2018-07-25T09:19:31.616Z,78.00
2018-07-25T09:24:26.753Z,78.00
2018-07-25T09:26:54.470Z,78.00
2018-07-25T09:29:22.196Z,78.10
2018-07-25T09:31:49.912Z,78.00
2018-07-25T09:34:18.608Z,78.10
2018-07-25T09:36:48.564Z,78.10
2018-07-25T09:39:18.604Z,78.10
2018-07-25T09:41:48.648Z,78.10
2018-07-25T09:44:18.228Z,78.20
2018-07-25T09:46:48.087Z,78.20
2018-07-25T09:49:16.572Z,78.20
2018-07-25T09:51:44.709Z,78.30
2018-07-25T09:54:12.421Z,78.30
2018-07-25T09:56:40.157Z,78.30
2018-07-25T09:59:07.875Z,78.30
2018-07-25T10:01:36.475Z,78.20
2018-07-25T10:04:04.176Z,78.30
2018-07-25T10:06:31.908Z,78.30
2018-07-25T10:08:59.611Z,78.30
2018-07-25T10:11:27.296Z,78.30
2018-07-25T10:13:55.830Z,78.30
2018-07-25T10:16:23.624Z,78.30
2018-07-25T10:18:52.132Z,78.30
2018-07-25T10:21:19.867Z,78.30
2018-07-25T10:26:18.142Z,78.40
2018-07-25T10:28:48.146Z,78.40
2018-07-25T10:31:16.528Z,78.40
2018-07-25T10:33:44.807Z,79.10
2018-07-25T10:36:12.516Z,78.40
2018-07-25T10:38:40.210Z,78.40
2018-07-25T10:41:08.001Z,78.40
2018-07-25T10:43:35.693Z,78.40
2018-07-25T10:46:03.420Z,78.30
2018-07-25T10:48:31.133Z,78.40
2018-07-25T10:50:58.846Z,78.30
2018-07-25T10:53:26.558Z,78.30
2018-07-25T10:55:54.330Z,78.40
2018-07-25T10:58:22.005Z,78.40
2018-07-25T11:00:49.744Z,78.40
2018-07-25T11:03:18.601Z,78.20
2018-07-25T11:05:48.682Z,78.30
2018-07-25T11:08:18.462Z,78.30
2018-07-25T11:13:13.596Z,78.20
2018-07-25T11:15:41.331Z,78.20
2018-07-25T11:18:09.036Z,78.20
2018-07-25T11:20:36.761Z,78.20
2018-07-25T11:23:04.530Z,78.90
2018-07-25T11:25:32.164Z,78.30
2018-07-25T11:27:59.866Z,78.20
2018-07-25T11:30:27.582Z,78.20
2018-07-25T11:32:55.365Z,78.20
2018-07-25T11:35:23.002Z,78.20
2018-07-25T11:37:50.680Z,78.10
2018-07-25T11:40:18.836Z,78.00
2018-07-25T11:42:46.519Z,78.00
2018-07-25T11:45:14.862Z,77.90
2018-07-25T11:47:42.560Z,78.00
2018-07-25T11:50:10.277Z,78.10
2018-07-25T11:52:40.138Z,78.10
2018-07-25T11:55:07.824Z,78.10
2018-07-25T11:57:35.509Z,78.20
2018-07-25T12:00:03.197Z,78.10
2018-07-25T12:02:30.883Z,78.20
2018-07-25T12:04:58.564Z,78.20
2018-07-25T12:07:26.294Z,78.20
2018-07-25T12:09:53.976Z,78.20
2018-07-25T12:12:21.679Z,78.20
2018-07-25T12:14:49.665Z,78.20
2018-07-25T12:17:18.543Z,78.20
2018-07-25T12:19:47.733Z,78.20
2018-07-25T12:22:16.476Z,78.20
2018-07-25T12:24:44.947Z,78.20
2018-07-25T12:27:12.657Z,78.20
2018-07-25T12:29:40.371Z,78.20
2018-07-25T12:32:08.057Z,78.20
2018-07-25T12:34:35.764Z,78.20
2018-07-25T12:37:03.463Z,78.20
2018-07-25T12:39:31.159Z,78.20
2018-07-25T12:41:59.160Z,78.30
2018-07-25T12:44:27.019Z,78.30
2018-07-25T12:46:54.784Z,78.30
2018-07-25T12:49:22.492Z,78.30
2018-07-25T12:51:50.209Z,78.30
2018-07-25T12:54:18.759Z,78.20
2018-07-25T12:56:48.628Z,78.10
2018-07-25T12:59:17.853Z,78.20
2018-07-25T13:01:47.730Z,78.20
2018-07-25T13:04:16.363Z,78.30
2018-07-25T13:06:44.069Z,78.30
2018-07-25T13:09:12.941Z,78.20
2018-07-25T13:11:40.664Z,78.20
2018-07-25T13:14:08.452Z,78.30
2018-07-25T13:16:36.560Z,78.60
2018-07-25T13:19:04.429Z,78.30
2018-07-25T13:21:32.135Z,78.20
2018-07-25T13:23:59.860Z,78.20
2018-07-25T13:26:27.562Z,78.10
2018-07-25T13:28:55.347Z,78.20
2018-07-25T13:31:23.011Z,78.20
2018-07-25T13:33:50.726Z,78.20
2018-07-25T13:36:20.197Z,78.20
2018-07-25T13:38:49.431Z,78.20
2018-07-25T13:41:18.268Z,78.20
2018-07-25T13:43:48.423Z,78.10
2018-07-25T13:46:18.794Z,78.20
2018-07-25T13:48:48.295Z,78.10
2018-07-25T13:51:17.509Z,78.10
2018-07-25T13:53:45.716Z,78.10
2018-07-25T13:56:13.412Z,78.20
2018-07-25T13:58:41.104Z,78.20
2018-07-25T14:01:08.805Z,78.20
2018-07-25T14:03:36.512Z,78.20
2018-07-25T14:06:04.196Z,78.10
2018-07-25T14:08:31.928Z,78.10
2018-07-25T14:10:59.640Z,78.20
2018-07-25T14:13:28.243Z,78.20
2018-07-25T14:15:55.944Z,78.20
2018-07-25T14:18:23.657Z,78.20
2018-07-25T14:20:51.354Z,78.20
2018-07-25T14:23:20.412Z,78.30
2018-07-25T14:25:49.488Z,78.20
2018-07-25T14:28:18.156Z,78.10
2018-07-25T14:30:46.720Z,78.10
2018-07-25T14:33:14.895Z,78.10
2018-07-25T14:35:42.609Z,78.10
2018-07-25T14:38:10.327Z,78.10
2018-07-25T14:40:38.050Z,78.00
2018-07-25T14:43:06.011Z,78.20
2018-07-25T14:45:33.717Z,78.20
2018-07-25T14:48:01.447Z,78.20
2018-07-25T14:50:29.136Z,78.20
2018-07-25T14:52:57.877Z,78.20
2018-07-25T14:55:25.577Z,78.20
2018-07-25T14:57:53.293Z,78.20
2018-07-25T15:00:21.043Z,78.20
2018-07-25T15:02:49.984Z,78.20
2018-07-25T15:05:18.758Z,78.20
2018-07-25T15:07:48.764Z,78.20
2018-07-25T15:10:17.204Z,78.20
2018-07-25T15:12:50.428Z,78.90
2018-07-25T15:15:19.152Z,78.30
2018-07-25T15:17:48.514Z,78.20
2018-07-25T15:20:18.325Z,78.10
2018-07-25T15:22:47.865Z,78.20
2018-07-25T15:25:16.699Z,78.20
2018-07-25T15:27:44.936Z,78.20
2018-07-25T15:30:12.708Z,78.20
2018-07-25T15:32:40.725Z,78.20
2018-07-25T15:35:08.942Z,78.20
2018-07-25T15:37:36.661Z,78.20
2018-07-25T15:40:04.848Z,78.20
2018-07-25T15:42:32.561Z,78.20
2018-07-25T15:45:00.356Z,78.20
2018-07-25T15:47:28.113Z,78.20
2018-07-25T15:49:55.823Z,78.20
2018-07-25T15:52:23.524Z,78.20
2018-07-25T15:54:51.276Z,78.20
2018-07-25T15:57:20.192Z,78.20
2018-07-25T15:59:49.158Z,78.50
2018-07-25T16:02:17.703Z,78.80
2018-07-25T16:04:45.820Z,78.10
2018-07-25T16:07:13.527Z,78.10
2018-07-25T16:09:41.343Z,78.10
2018-07-25T16:12:09.965Z,78.20
2018-07-25T16:14:37.655Z,78.20
2018-07-25T16:17:05.409Z,78.20
2018-07-25T16:19:33.129Z,78.10
2018-07-25T16:22:00.904Z,78.10
2018-07-25T16:24:29.115Z,78.20
2018-07-25T16:26:56.788Z,78.20
2018-07-25T16:29:24.477Z,78.20
2018-07-25T16:31:52.181Z,78.10
2018-07-25T16:34:19.887Z,78.10
2018-07-25T16:36:48.477Z,78.10
2018-07-25T16:39:18.529Z,78.10
2018-07-25T16:41:48.573Z,78.10
2018-07-25T16:44:18.140Z,78.20
2018-07-25T16:46:46.593Z,78.10
2018-07-25T16:49:14.985Z,78.10
2018-07-25T16:51:42.696Z,78.10
2018-07-25T16:54:10.393Z,78.20
2018-07-25T16:56:38.185Z,78.20
2018-07-25T16:59:05.913Z,78.10
2018-07-25T17:01:33.680Z,78.90
2018-07-25T17:04:01.418Z,78.20
2018-07-25T17:06:29.113Z,78.20
2018-07-25T17:08:56.837Z,78.20
2018-07-25T17:11:24.527Z,78.20
2018-07-25T17:13:52.233Z,78.20
2018-07-25T17:16:22.905Z,78.20
2018-07-25T17:18:50.631Z,78.20
2018-07-25T17:21:19.220Z,78.20
2018-07-25T17:23:48.093Z,78.20
2018-07-25T17:26:18.152Z,78.90
2018-07-25T17:28:48.255Z,78.20
2018-07-25T17:31:17.676Z,78.10
2018-07-25T17:33:45.896Z,78.20
2018-07-25T17:36:13.628Z,78.20
2018-07-25T17:38:41.361Z,78.20
2018-07-25T17:41:09.093Z,78.30
2018-07-25T17:43:37.797Z,78.20
2018-07-25T17:46:05.520Z,78.30
2018-07-25T17:48:33.296Z,78.20
2018-07-25T17:51:01.028Z,78.20
2018-07-25T17:53:28.802Z,78.20
2018-07-25T17:55:56.516Z,78.20
2018-07-25T17:58:24.244Z,78.30
2018-07-25T18:00:51.975Z,78.30
2018-07-25T18:03:19.728Z,78.30
2018-07-25T18:05:48.649Z,78.30
2018-07-25T18:08:18.601Z,78.40
2018-07-25T18:10:48.335Z,78.10
2018-07-25T18:13:22.382Z,78.50
2018-07-25T18:15:50.359Z,78.30
2018-07-25T18:18:19.537Z,78.30
2018-07-25T18:20:48.401Z,78.30
2018-07-25T18:23:17.910Z,78.30
2018-07-25T18:25:46.777Z,78.20
2018-07-25T18:28:15.311Z,78.20
2018-07-25T18:30:43.146Z,78.20
2018-07-25T18:33:11.140Z,78.20
2018-07-25T18:35:38.924Z,78.20
2018-07-25T18:38:06.628Z,78.30
2018-07-25T18:40:34.480Z,78.20
2018-07-25T18:43:02.188Z,78.30
2018-07-25T18:45:29.912Z,78.30
2018-07-25T18:47:57.661Z,78.30
2018-07-25T18:50:29.357Z,78.30
2018-07-25T18:55:24.522Z,78.20
2018-07-25T18:57:52.294Z,78.90
2018-07-25T19:00:20.049Z,78.30
2018-07-25T19:02:49.110Z,78.30
2018-07-25T19:05:18.169Z,78.30
2018-07-25T19:07:48.685Z,78.40
2018-07-25T19:10:18.326Z,78.40
2018-07-25T19:12:46.704Z,78.40
2018-07-25T19:15:19.804Z,78.40
2018-07-25T19:17:48.635Z,78.40
2018-07-25T19:20:18.715Z,78.50
2018-07-25T19:22:46.516Z,78.40
2018-07-25T19:25:14.235Z,78.40
2018-07-25T19:27:41.989Z,78.50
2018-07-25T19:30:09.888Z,78.50
2018-07-25T19:32:37.573Z,78.50
2018-07-25T19:35:05.356Z,78.40
2018-07-25T19:40:36.514Z,78.50
2018-07-25T19:43:04.415Z,78.50
2018-07-25T19:45:32.284Z,78.60
2018-07-25T19:48:00.027Z,78.70
2018-07-25T19:50:27.908Z,78.70
2018-07-25T19:52:55.740Z,78.60
2018-07-25T19:55:23.647Z,78.60
2018-07-25T19:57:52.269Z,78.60
2018-07-25T20:00:20.030Z,78.60
2018-07-25T20:02:48.908Z,78.60
2018-07-25T20:05:19.048Z,78.60
2018-07-25T20:07:48.328Z,78.60
2018-07-25T20:10:18.194Z,78.60
2018-07-25T20:12:48.297Z,78.60
2018-07-25T20:15:22.413Z,78.70
2018-07-25T20:17:50.363Z,78.70
2018-07-25T20:20:19.138Z,78.70
2018-07-25T20:22:47.762Z,78.80
2018-07-25T20:25:16.376Z,78.70
2018-07-25T20:27:44.298Z,78.70
2018-07-25T20:30:12.078Z,78.80
2018-07-25T20:32:39.809Z,78.80
2018-07-25T20:35:07.634Z,78.80
2018-07-25T20:37:35.842Z,78.80
2018-07-25T20:40:03.637Z,78.90
2018-07-25T20:42:31.322Z,78.90
2018-07-25T20:44:59.025Z,78.80
2018-07-25T20:47:26.712Z,78.80
2018-07-25T20:49:54.401Z,78.90
2018-07-25T20:52:22.151Z,79.10
2018-07-25T20:54:50.002Z,79.30
2018-07-25T20:57:19.048Z,79.10
2018-07-25T20:59:48.419Z,78.90
2018-07-25T21:02:17.077Z,78.80
2018-07-25T21:04:44.761Z,78.50
2018-07-25T21:07:12.446Z,78.40
2018-07-25T21:09:40.140Z,78.30
2018-07-25T21:12:07.853Z,78.30
2018-07-25T21:14:35.538Z,78.30
2018-07-25T21:17:03.257Z,78.40
2018-07-25T21:19:30.935Z,78.70
2018-07-25T21:21:58.634Z,78.40
2018-07-25T21:24:27.337Z,78.40
2018-07-25T21:26:55.056Z,78.40
2018-07-25T21:29:22.741Z,78.40
2018-07-25T21:31:50.444Z,78.40
2018-07-25T21:34:19.274Z,78.30
2018-07-25T21:36:48.159Z,78.40
2018-07-25T21:39:16.658Z,78.40
2018-07-25T21:41:44.353Z,78.40
2018-07-25T21:44:12.047Z,78.40
2018-07-25T21:46:39.729Z,78.40
2018-07-25T21:49:07.475Z,78.50
2018-07-25T21:51:35.160Z,78.50
2018-07-25T21:54:02.852Z,78.50
2018-07-25T21:56:30.533Z,78.60
2018-07-25T21:58:58.215Z,78.60
2018-07-25T22:01:25.922Z,78.60
2018-07-25T22:03:53.627Z,78.60
2018-07-25T22:06:22.883Z,78.50
2018-07-25T22:08:50.609Z,78.60
2018-07-25T22:11:18.908Z,78.70
2018-07-25T22:13:52.158Z,78.70
2018-07-25T22:16:20.032Z,78.70
2018-07-25T22:18:49.735Z,78.80
2018-07-25T22:21:18.592Z,78.70
2018-07-25T22:23:48.272Z,78.60
2018-07-25T22:26:16.020Z,78.70
2018-07-25T22:28:44.036Z,78.60
2018-07-25T22:31:11.725Z,78.70
2018-07-25T22:33:39.456Z,78.70
2018-07-25T22:36:07.702Z,78.70
2018-07-25T22:38:36.444Z,78.70
2018-07-25T22:41:04.145Z,78.70
2018-07-25T22:43:31.836Z,78.70
2018-07-25T22:45:59.540Z,78.80
2018-07-25T22:48:27.262Z,78.70
2018-07-25T22:50:54.956Z,78.60
2018-07-25T22:53:22.636Z,78.70
2018-07-25T22:55:50.318Z,78.70
2018-07-25T23:00:48.444Z,78.60
2018-07-25T23:03:16.796Z,78.80
2018-07-25T23:05:45.219Z,78.60
2018-07-25T23:08:12.916Z,78.80
2018-07-25T23:10:40.720Z,78.70
2018-07-25T23:13:08.466Z,79.30
2018-07-25T23:15:36.144Z,78.70
2018-07-25T23:18:03.829Z,78.70
2018-07-25T23:20:31.516Z,78.80
2018-07-25T23:23:00.224Z,78.60
2018-07-25T23:25:28.200Z,78.80
2018-07-25T23:27:57.143Z,78.50
2018-07-25T23:30:26.824Z,78.70
2018-07-25T23:32:54.509Z,79.30
2018-07-25T23:35:22.237Z,78.60
2018-07-25T23:37:50.460Z,78.60
2018-07-25T23:40:18.591Z,78.60
2018-07-25T23:42:48.465Z,78.60
2018-07-25T23:45:18.278Z,78.70
2018-07-25T23:47:48.235Z,78.60
2018-07-25T23:50:16.660Z,78.60
2018-07-25T23:52:44.343Z,78.60
2018-07-25T23:55:12.044Z,78.60
2018-07-25T23:57:39.740Z,78.50
